Time;durP1;ratioP1;P1;durP2;ratioP2;P2;SDS_P1;SDS_P2;PMS_P1;PMS_P2;Temp;Humidity;BMP_temperature;BMP_pressure;BME280_temperature;BME280_humidity;BME280_pressure;Samples;Min_cycle;Max_cycle;Signal;HPM_P1;HPM_P2
2022/12/03 00:00:24;;;;;;;4.25;2.75;;;16.70;51.90;;;;;;6182752;23;45227;-72
2022/12/03 00:02:51;;;;;;;3.80;2.78;;;16.70;51.80;;;;;;6182751;23;45567;-72
2022/12/03 00:05:19;;;;;;;4.68;3.03;;;16.80;51.90;;;;;;6181410;23;46297;-72
2022/12/03 00:07:46;;;;;;;4.70;3.10;;;16.80;52.10;;;;;;6182281;23;46184;-72
2022/12/03 00:10:13;;;;;;;3.22;2.65;;;16.80;51.50;;;;;;6181737;23;45359;-72
2022/12/03 00:12:40;;;;;;;3.78;2.88;;;16.70;51.30;;;;;;6181809;23;45249;-71
2022/12/03 00:15:08;;;;;;;4.05;2.85;;;16.70;51.00;;;;;;6179540;23;48217;-72
2022/12/03 00:17:35;;;;;;;4.72;3.03;;;16.70;51.10;;;;;;6182014;23;45358;-72
2022/12/03 00:20:01;;;;;;;4.13;2.80;;;16.70;51.00;;;;;;6182169;23;45380;-72
2022/12/03 00:22:30;;;;;;;4.25;3.08;;;16.70;51.00;;;;;;6182341;23;45254;-72
2022/12/03 00:24:56;;;;;;;4.40;2.67;;;16.70;51.00;;;;;;6181000;23;46342;-72
2022/12/03 00:27:23;;;;;;;3.58;2.78;;;16.70;51.00;;;;;;6181902;23;45368;-72
2022/12/03 00:29:50;;;;;;;3.97;2.92;;;16.70;51.00;;;;;;6182336;23;45343;-71
2022/12/03 00:32:16;;;;;;;3.85;2.83;;;16.70;51.00;;;;;;6181634;23;45367;-72
2022/12/03 00:34:43;;;;;;;4.18;3.00;;;16.70;51.00;;;;;;6181907;23;46604;-72
2022/12/03 00:37:10;;;;;;;3.47;2.70;;;16.70;51.00;;;;;;6180741;23;45309;-71
2022/12/03 00:39:38;;;;;;;4.28;2.92;;;16.70;51.00;;;;;;6182437;23;45344;-72
2022/12/03 00:42:05;;;;;;;3.20;2.40;;;16.70;52.20;;;;;;6181625;23;45252;-72
2022/12/03 00:44:32;;;;;;;3.67;2.78;;;16.70;51.00;;;;;;6179075;23;47745;-71
2022/12/03 00:46:59;;;;;;;4.22;2.97;;;16.70;51.00;;;;;;6182096;23;45183;-71
2022/12/03 00:49:26;;;;;;;4.43;2.40;;;16.70;51.20;;;;;;6180514;23;45317;-72
2022/12/03 00:51:52;;;;;;;4.00;2.88;;;16.70;51.40;;;;;;6182603;23;45407;-72
2022/12/03 00:54:19;;;;;;;3.97;2.72;;;16.70;51.40;;;;;;6180718;23;46561;-71
2022/12/03 00:56:47;;;;;;;3.55;2.65;;;16.70;51.50;;;;;;6184602;23;45174;-71
2022/12/03 00:59:14;;;;;;;4.13;2.60;;;16.70;51.50;;;;;;6180841;23;45240;-71
2022/12/03 01:01:41;;;;;;;4.30;2.85;;;16.70;51.10;;;;;;6181740;23;45643;-72
2022/12/03 01:04:08;;;;;;;4.45;2.97;;;16.70;51.50;;;;;;6181051;23;46584;-71
2022/12/03 01:06:34;;;;;;;3.28;2.55;;;16.80;51.10;;;;;;6179412;23;45480;-72
2022/12/03 01:09:01;;;;;;;4.60;2.90;;;16.70;51.00;;;;;;6182100;23;45256;-71
2022/12/03 01:11:37;;;;;;;3.50;2.50;;;16.70;51.00;;;;;;6181942;23;45491;-72
2022/12/03 01:14:06;;;;;;;4.70;2.85;;;16.70;51.00;;;;;;6180641;23;45621;-72
2022/12/03 01:16:33;;;;;;;3.88;3.05;;;16.70;51.00;;;;;;6181978;23;45457;-72
2022/12/03 01:19:00;;;;;;;4.25;2.65;;;16.70;51.00;;;;;;6181098;23;45289;-71
2022/12/03 01:21:26;;;;;;;3.65;2.42;;;16.70;51.00;;;;;;6181665;23;45398;-72
2022/12/03 01:23:53;;;;;;;3.53;2.63;;;16.70;51.00;;;;;;6179975;23;46997;-72
2022/12/03 01:26:20;;;;;;;4.43;3.00;;;16.70;51.00;;;;;;6180764;23;45244;-73
2022/12/03 01:28:47;;;;;;;4.10;2.78;;;16.70;51.00;;;;;;6181663;23;45220;-72
2022/12/03 01:33:59;;;;;;;4.22;2.80;;;16.70;51.10;;;;;;6180802;23;45428;-72
2022/12/03 01:36:26;;;;;;;4.43;2.80;;;16.70;51.00;;;;;;6181184;23;45267;-72
2022/12/03 01:38:53;;;;;;;4.05;2.83;;;16.70;51.00;;;;;;6181927;23;45228;-72
2022/12/03 01:41:22;;;;;;;3.75;2.58;;;16.70;51.00;;;;;;6181756;23;45512;-71
2022/12/03 01:43:50;;;;;;;3.83;2.70;;;16.70;51.00;;;;;;6180974;23;46466;-72
2022/12/03 01:46:23;;;;;;;3.95;2.55;;;16.70;51.00;;;;;;6181767;23;45164;-72
2022/12/03 01:48:52;;;;;;;3.53;2.45;;;16.70;51.10;;;;;;6181393;23;45376;-72
2022/12/03 01:51:19;;;;;;;3.67;2.70;;;16.80;51.10;;;;;;6182015;23;45264;-71
2022/12/03 01:53:47;;;;;;;4.30;2.42;;;16.70;51.00;;;;;;6181175;23;48058;-72
2022/12/03 01:56:15;;;;;;;3.85;2.67;;;16.80;51.10;;;;;;6182301;23;45432;-72
2022/12/03 01:58:43;;;;;;;3.90;2.90;;;16.80;51.10;;;;;;6183180;23;45269;-72
2022/12/03 02:01:13;;;;;;;3.55;2.40;;;16.80;51.10;;;;;;6181760;23;45389;-72
2022/12/03 02:03:42;;;;;;;3.88;2.53;;;16.80;51.10;;;;;;6182178;23;48029;-72
2022/12/03 02:06:15;;;;;;;4.20;3.05;;;16.70;51.00;;;;;;6179875;23;45734;-72
2022/12/03 02:08:43;;;;;;;4.25;2.42;;;16.70;52.20;;;;;;6182809;23;45202;-72
2022/12/03 02:11:16;;;;;;;3.53;2.85;;;16.70;51.00;;;;;;6181516;22;45518;-72
2022/12/03 02:13:44;;;;;;;3.97;2.70;;;16.70;51.00;;;;;;6181019;23;48030;-72
2022/12/03 02:16:10;;;;;;;3.35;2.40;;;16.70;51.00;;;;;;6182108;23;45229;-71
2022/12/03 02:18:37;;;;;;;3.42;2.40;;;16.70;51.00;;;;;;6182455;23;45340;-71
2022/12/03 02:21:15;;;;;;;3.58;2.50;;;16.70;51.00;;;;;;6182993;23;45423;-71
2022/12/03 02:23:51;;;;;;;3.35;2.60;;;16.70;51.00;;;;;;6182946;23;48424;-71
2022/12/03 02:26:19;;;;;;;3.75;2.80;;;16.70;51.00;;;;;;6183024;23;45243;-71
2022/12/03 02:28:46;;;;;;;4.20;3.20;;;16.70;51.00;;;;;;6183267;23;45237;-71
2022/12/03 02:31:13;;;;;;;3.75;2.53;;;16.70;51.00;;;;;;6184143;23;45514;-71
2022/12/03 02:33:40;;;;;;;3.45;2.45;;;16.70;51.00;;;;;;6183407;23;48013;-71
2022/12/03 02:36:08;;;;;;;3.42;2.65;;;16.70;51.00;;;;;;6182704;23;45301;-71
2022/12/03 02:38:35;;;;;;;4.45;2.72;;;16.70;51.00;;;;;;6184106;23;45219;-71
2022/12/03 02:41:04;;;;;;;3.92;2.58;;;16.70;51.20;;;;;;6182892;23;45555;-71
2022/12/03 02:43:32;;;;;;;3.58;2.50;;;16.70;51.00;;;;;;6183414;23;47211;-72
2022/12/03 02:46:02;;;;;;;3.72;2.65;;;16.70;51.30;;;;;;6184710;23;45226;-71
2022/12/03 02:48:32;;;;;;;4.18;2.70;;;16.80;51.10;;;;;;6183286;23;45435;-72
2022/12/03 02:51:02;;;;;;;3.65;2.30;;;16.80;52.30;;;;;;6183734;23;45383;-72
2022/12/03 02:53:31;;;;;;;3.20;2.40;;;16.70;51.40;;;;;;6182368;23;46404;-71
2022/12/03 02:56:00;;;;;;;3.45;2.45;;;16.70;51.00;;;;;;6181947;23;45236;-72
2022/12/03 02:58:30;;;;;;;3.97;2.65;;;16.70;51.00;;;;;;6183261;23;45580;-72
2022/12/03 03:01:00;;;;;;;3.60;2.75;;;16.70;51.00;;;;;;6183365;23;45443;-72
2022/12/03 03:03:29;;;;;;;3.75;2.53;;;16.70;51.00;;;;;;6183764;23;45378;-72
2022/12/03 03:05:57;;;;;;;4.00;3.03;;;16.70;51.00;;;;;;6181272;23;45216;-72
2022/12/03 03:08:25;;;;;;;4.50;2.90;;;16.70;51.00;;;;;;6184081;23;45161;-72
2022/12/03 03:10:52;;;;;;;3.30;2.45;;;16.70;51.00;;;;;;6181946;22;45450;-72
2022/12/03 03:13:20;;;;;;;4.43;2.90;;;16.70;51.00;;;;;;6182692;23;45283;-72
2022/12/03 03:15:48;;;;;;;3.78;2.95;;;16.70;51.00;;;;;;6181937;23;45242;-72
2022/12/03 03:18:17;;;;;;;4.15;3.00;;;16.70;51.00;;;;;;6183507;23;45494;-72
2022/12/03 03:20:45;;;;;;;4.35;2.67;;;16.70;51.00;;;;;;6183318;23;45261;-71
2022/12/03 03:23:14;;;;;;;3.42;2.80;;;16.70;51.00;;;;;;6182765;23;46443;-72
2022/12/03 03:25:44;;;;;;;3.92;2.70;;;16.70;51.00;;;;;;6182219;23;45317;-72
2022/12/03 03:28:11;;;;;;;3.83;2.63;;;16.70;51.00;;;;;;6183223;23;45292;-72
2022/12/03 03:30:40;;;;;;;3.63;2.53;;;16.70;51.00;;;;;;6183930;23;45254;-72
2022/12/03 03:33:08;;;;;;;3.72;2.70;;;16.70;51.00;;;;;;6182463;23;45209;-72
2022/12/03 03:35:36;;;;;;;4.10;2.40;;;16.70;51.00;;;;;;6182107;23;45336;-72
2022/12/03 03:38:04;;;;;;;3.95;2.67;;;16.70;51.10;;;;;;6183655;23;45319;-72
2022/12/03 03:40:31;;;;;;;3.33;2.70;;;16.70;51.30;;;;;;6183129;23;45388;-70
2022/12/03 03:42:59;;;;;;;4.25;2.67;;;16.70;51.40;;;;;;6183563;23;45421;-72
2022/12/03 03:45:26;;;;;;;3.60;2.65;;;16.70;51.00;;;;;;6181910;23;45315;-72
2022/12/03 03:47:54;;;;;;;3.10;2.20;;;16.80;51.20;;;;;;6183621;23;45245;-72
2022/12/03 03:50:21;;;;;;;4.07;2.75;;;16.80;51.40;;;;;;6183254;23;45649;-72
2022/12/03 03:52:49;;;;;;;5.40;2.97;;;16.70;51.10;;;;;;6183053;23;48069;-72
2022/12/03 03:55:17;;;;;;;4.45;3.20;;;16.70;51.00;;;;;;6182218;23;45263;-72
2022/12/03 03:57:44;;;;;;;3.55;2.70;;;16.70;51.00;;;;;;6183117;23;45289;-72
2022/12/03 04:00:12;;;;;;;4.50;3.00;;;16.70;51.00;;;;;;6183647;23;45533;-72
2022/12/03 04:02:40;;;;;;;4.10;2.67;;;16.70;51.00;;;;;;6183596;23;47055;-72
2022/12/03 04:05:11;;;;;;;4.72;3.17;;;16.70;51.00;;;;;;6180437;23;45310;-71
2022/12/03 04:07:38;;;;;;;4.43;3.03;;;16.70;51.00;;;;;;6183658;23;45326;-72
2022/12/03 04:12:54;;;;;;;5.07;3.25;;;16.70;51.00;;;;;;6182731;23;45291;-72
2022/12/03 04:13:02;;;;;;;5.22;3.30;;;16.70;51.10;;;;;;6182737;23;46456;-72
2022/12/03 04:15:29;;;;;;;4.78;3.50;;;16.70;51.00;;;;;;6181930;23;45281;-71
2022/12/03 04:20:40;;;;;;;5.38;3.20;;;16.70;50.30;;;;;;6183426;23;45256;-72
2022/12/03 04:23:07;;;;;;;3.83;2.83;;;16.60;49.50;;;;;;6182713;23;45357;-71
2022/12/03 04:35:41;;;;;;;4.72;3.40;;;16.60;50.00;;;;;;6167778;23;45360;-71
2022/12/03 04:36:35;;;;;;;5.28;3.30;;;16.60;50.40;;;;;;6183604;23;45506;-70
2022/12/03 04:39:02;;;;;;;5.95;3.80;;;16.60;50.30;;;;;;6182982;23;45457;-71
2022/12/03 04:41:30;;;;;;;5.82;3.95;;;16.60;50.70;;;;;;6183181;23;45375;-72
2022/12/03 04:46:41;;;;;;;4.65;3.38;;;16.60;49.90;;;;;;6182955;23;45257;-72
2022/12/03 04:49:08;;;;;;;5.55;3.70;;;16.60;48.80;;;;;;6183332;23;45277;-72
2022/12/03 04:51:34;;;;;;;7.30;3.58;;;16.60;48.70;;;;;;6181067;23;45333;-72
2022/12/03 04:54:02;;;;;;;5.85;3.63;;;16.50;48.50;;;;;;6180961;23;45457;-72
2022/12/03 04:56:30;;;;;;;5.28;3.58;;;16.50;48.20;;;;;;6182402;23;45221;-72
2022/12/03 04:58:57;;;;;;;4.75;3.40;;;16.50;47.90;;;;;;6182161;23;45379;-72
2022/12/03 05:01:24;;;;;;;6.03;3.83;;;16.50;48.10;;;;;;6182423;23;45285;-72
2022/12/03 05:03:51;;;;;;;5.28;3.65;;;16.50;48.20;;;;;;6181894;23;47229;-72
2022/12/03 05:06:17;;;;;;;6.10;4.03;;;16.50;48.00;;;;;;6181485;23;45296;-72
2022/12/03 05:08:44;;;;;;;5.30;3.67;;;16.50;47.90;;;;;;6182450;23;45232;-71
2022/12/03 05:11:11;;;;;;;6.80;4.20;;;16.50;47.90;;;;;;6183133;23;45263;-71
2022/12/03 05:13:39;;;;;;;5.07;3.58;;;16.50;47.50;;;;;;6181493;23;47051;-72
2022/12/03 05:16:07;;;;;;;5.88;3.92;;;16.50;47.50;;;;;;6181487;23;45288;-72
2022/12/03 05:18:33;;;;;;;6.63;4.03;;;16.50;47.80;;;;;;6183040;23;45439;-72
2022/12/03 05:21:00;;;;;;;5.78;4.03;;;16.50;47.70;;;;;;6182594;23;45444;-72
2022/12/03 05:23:27;;;;;;;5.38;3.40;;;16.50;47.90;;;;;;6183123;23;46384;-72
2022/12/03 05:25:54;;;;;;;5.57;3.60;;;16.50;48.40;;;;;;6181842;23;45276;-72
2022/12/03 05:28:23;;;;;;;5.43;3.42;;;16.50;48.70;;;;;;6182980;23;45256;-72
2022/12/03 05:30:51;;;;;;;5.35;3.40;;;16.50;48.40;;;;;;6183252;23;45225;-72
2022/12/03 05:33:19;;;;;;;6.22;3.72;;;16.50;48.80;;;;;;6184368;23;45244;-72
2022/12/03 05:35:46;;;;;;;5.22;3.53;;;16.50;48.50;;;;;;6182018;23;45413;-72
2022/12/03 05:38:13;;;;;;;7.00;3.88;;;16.50;48.80;;;;;;6182871;23;45342;-72
2022/12/03 05:40:40;;;;;;;5.68;3.58;;;16.50;51.20;;;;;;6182348;23;45293;-72
2022/12/03 05:43:06;;;;;;;6.82;4.20;;;16.50;50.50;;;;;;6182808;23;45633;-72
2022/12/03 05:45:35;;;;;;;6.00;3.47;;;16.50;49.10;;;;;;6181489;23;45361;-72
2022/12/03 05:48:05;;;;;;;7.20;3.90;;;16.50;48.50;;;;;;6183041;23;45288;-71
2022/12/03 05:50:34;;;;;;;7.10;4.03;;;16.50;48.70;;;;;;6182210;23;45221;-72
2022/12/03 05:53:01;;;;;;;6.85;4.28;;;16.50;48.20;;;;;;6182954;23;46422;-72
2022/12/03 05:55:28;;;;;;;6.25;3.85;;;16.50;48.00;;;;;;6181332;23;45380;-71
2022/12/03 05:57:55;;;;;;;6.50;4.20;;;16.50;47.80;;;;;;6182775;23;45332;-72
2022/12/03 06:00:24;;;;;;;6.70;3.90;;;16.50;47.70;;;;;;6182846;23;45307;-72
2022/12/03 06:02:52;;;;;;;8.10;4.25;;;16.50;47.70;;;;;;6181835;23;46349;-72
2022/12/03 06:05:21;;;;;;;6.80;3.97;;;16.50;47.40;;;;;;6180469;23;45259;-72
2022/12/03 06:07:50;;;;;;;6.97;4.32;;;16.40;47.30;;;;;;6181789;23;45452;-72
2022/12/03 06:10:19;;;;;;;7.03;4.13;;;16.50;47.30;;;;;;6182372;23;45344;-72
2022/12/03 06:12:46;;;;;;;7.97;4.63;;;16.40;47.10;;;;;;6182208;23;46264;-71
2022/12/03 06:15:14;;;;;;;7.22;4.15;;;16.50;47.60;;;;;;6178800;23;45395;-72
2022/12/03 06:17:41;;;;;;;7.00;4.00;;;16.50;47.80;;;;;;6181231;23;45426;-72
2022/12/03 06:20:09;;;;;;;6.70;4.30;;;16.50;48.10;;;;;;6181570;23;45530;-72
2022/12/03 06:22:37;;;;;;;6.88;4.22;;;16.40;48.10;;;;;;6181999;23;45264;-71
2022/12/03 06:25:04;;;;;;;6.85;4.13;;;16.50;48.00;;;;;;6181048;23;45739;-72
2022/12/03 06:27:31;;;;;;;6.05;4.30;;;16.50;48.10;;;;;;6181161;23;45336;-71
2022/12/03 06:29:57;;;;;;;6.35;4.00;;;16.50;49.10;;;;;;6181498;23;45403;-71
2022/12/03 06:32:24;;;;;;;6.80;3.75;;;16.50;49.10;;;;;;6181518;23;45440;-72
2022/12/03 06:34:51;;;;;;;7.82;4.00;;;16.50;48.50;;;;;;6181381;23;45332;-72
2022/12/03 06:37:18;;;;;;;6.88;3.85;;;16.50;48.80;;;;;;6182203;23;45226;-71
2022/12/03 06:39:46;;;;;;;8.07;4.57;;;16.50;48.70;;;;;;6181613;23;45526;-71
2022/12/03 06:42:13;;;;;;;7.60;4.00;;;16.50;48.40;;;;;;6180568;23;45449;-71
2022/12/03 06:44:40;;;;;;;8.50;4.55;;;16.40;47.40;;;;;;6178269;23;45318;-71
2022/12/03 06:47:07;;;;;;;7.43;4.47;;;16.50;47.50;;;;;;6183358;23;45186;-71
2022/12/03 06:49:34;;;;;;;7.78;4.40;;;16.40;46.90;;;;;;6184649;23;45568;-71
2022/12/03 06:52:00;;;;;;;8.52;4.63;;;16.40;47.00;;;;;;6182674;23;46564;-71
2022/12/03 06:54:27;;;;;;;6.95;4.05;;;16.40;47.00;;;;;;6181441;23;45424;-72
2022/12/03 06:56:55;;;;;;;7.13;4.30;;;16.40;46.90;;;;;;6181565;23;45501;-71
2022/12/03 06:59:22;;;;;;;8.40;4.15;;;16.40;46.70;;;;;;6182243;23;45223;-71
2022/12/03 07:01:49;;;;;;;7.57;4.30;;;16.40;46.90;;;;;;6181285;23;45487;-71
2022/12/03 07:04:16;;;;;;;7.53;3.88;;;16.40;46.60;;;;;;6181290;23;45268;-72
2022/12/03 07:06:43;;;;;;;6.93;4.20;;;16.40;46.40;;;;;;6180581;23;45450;-71
2022/12/03 07:09:10;;;;;;;6.97;4.30;;;16.30;46.40;;;;;;6182689;23;45216;-71
2022/12/03 07:11:39;;;;;;;7.78;4.05;;;16.40;46.60;;;;;;6183086;23;45205;-71
2022/12/03 07:14:09;;;;;;;7.57;4.63;;;16.30;46.30;;;;;;6182285;23;45275;-72
2022/12/03 07:16:37;;;;;;;6.80;4.40;;;16.40;46.70;;;;;;6182395;23;45361;-71
2022/12/03 07:19:05;;;;;;;7.53;4.35;;;16.40;46.90;;;;;;6183005;23;45499;-71
2022/12/03 07:21:33;;;;;;;8.25;4.45;;;16.40;47.20;;;;;;6181080;23;47325;-72
2022/12/03 07:23:59;;;;;;;10.40;3.78;;;16.40;46.80;;;;;;6183886;23;45771;-71
2022/12/03 07:26:26;;;;;;;7.70;4.00;;;16.40;50.80;;;;;;6182351;23;45213;-71
2022/12/03 07:28:53;;;;;;;7.47;4.22;;;16.50;49.70;;;;;;6183498;23;45463;-71
2022/12/03 07:31:21;;;;;;;8.27;4.22;;;16.40;48.10;;;;;;6182826;23;45573;-71
2022/12/03 07:33:48;;;;;;;9.35;4.80;;;16.50;47.60;;;;;;6181708;23;45309;-72
2022/12/03 07:36:15;;;;;;;8.55;4.40;;;16.40;47.00;;;;;;6182543;23;45358;-72
2022/12/03 07:38:42;;;;;;;7.22;4.18;;;16.40;47.00;;;;;;6182830;23;45249;-72
2022/12/03 07:41:09;;;;;;;9.95;5.00;;;16.40;46.60;;;;;;6184890;23;47466;-71
2022/12/03 07:43:36;;;;;;;7.68;4.10;;;16.40;46.60;;;;;;6184934;23;46079;-72
2022/12/03 07:46:03;;;;;;;10.77;5.03;;;16.40;47.30;;;;;;6183559;23;45382;-72
2022/12/03 07:48:31;;;;;;;7.50;4.57;;;16.40;50.70;;;;;;6185750;23;45109;-71
2022/12/03 07:50:57;;;;;;;7.50;4.15;;;16.40;49.20;;;;;;6183327;23;48291;-72
2022/12/03 07:53:24;;;;;;;7.85;4.63;;;16.40;48.40;;;;;;6183514;23;45526;-71
2022/12/03 07:55:51;;;;;;;8.60;4.82;;;16.40;47.80;;;;;;6183068;23;45313;-71
2022/12/03 07:58:18;;;;;;;7.82;4.60;;;16.30;47.40;;;;;;6183299;23;45417;-72
2022/12/03 08:00:44;;;;;;;8.93;5.07;;;16.30;47.00;;;;;;6183422;23;48296;-71
2022/12/03 08:03:11;;;;;;;8.30;4.88;;;16.30;46.60;;;;;;6183014;23;45244;-72
2022/12/03 08:05:39;;;;;;;8.50;5.00;;;16.30;46.60;;;;;;6181459;23;45311;-72
2022/12/03 08:08:06;;;;;;;10.00;4.65;;;16.30;46.60;;;;;;6183644;23;45506;-72
2022/12/03 08:10:33;;;;;;;7.88;4.47;;;16.30;46.60;;;;;;6183278;23;48011;-72
2022/12/03 08:13:00;;;;;;;8.65;4.97;;;16.30;46.70;;;;;;6183551;23;45622;-72
2022/12/03 08:15:28;;;;;;;7.70;4.50;;;16.30;46.60;;;;;;6182424;23;45286;-71
2022/12/03 08:17:57;;;;;;;8.38;4.45;;;16.30;46.70;;;;;;6183564;23;45410;-70
2022/12/03 08:20:27;;;;;;;6.28;4.10;;;16.30;46.60;;;;;;6182685;23;47231;-71
2022/12/03 08:22:56;;;;;;;7.25;3.95;;;16.30;46.60;;;;;;6183306;23;45956;-71
2022/12/03 08:25:25;;;;;;;8.13;4.20;;;16.30;46.70;;;;;;6182476;23;45372;-71
2022/12/03 08:27:55;;;;;;;9.20;5.13;;;16.30;47.20;;;;;;6182997;23;45367;-71
2022/12/03 08:30:23;;;;;;;8.82;5.30;;;16.30;45.90;;;;;;6183430;23;46436;-71
2022/12/03 08:32:51;;;;;;;8.85;4.65;;;16.30;45.50;;;;;;6182796;23;45436;-72
2022/12/03 08:35:22;;;;;;;7.78;4.97;;;16.30;45.50;;;;;;6183199;23;45277;-72
2022/12/03 08:37:56;;;;;;;7.75;4.70;;;16.30;45.50;;;;;;6183150;23;45351;-72
2022/12/03 08:40:30;;;;;;;10.60;4.90;;;16.30;45.40;;;;;;6183303;23;47263;-72
2022/12/03 08:42:57;;;;;;;6.75;4.60;;;16.20;46.50;;;;;;6182781;23;45327;-72
2022/12/03 08:45:39;;;;;;;8.25;4.85;;;16.30;45.40;;;;;;6182566;23;45356;-72
2022/12/03 08:48:24;;;;;;;8.63;4.80;;;16.30;45.10;;;;;;6183686;23;45417;-72
2022/12/03 08:50:52;;;;;;;8.75;4.53;;;16.30;45.10;;;;;;6183508;23;45507;-72
2022/12/03 08:53:35;;;;;;;9.25;4.57;;;16.30;45.10;;;;;;6183548;23;45200;-72
2022/12/03 08:56:06;;;;;;;10.73;5.10;;;16.20;44.90;;;;;;6182461;23;45281;-72
2022/12/03 08:58:37;;;;;;;10.68;4.75;;;16.30;45.10;;;;;;6183963;23;45385;-72
2022/12/03 09:01:29;;;;;;;8.57;4.60;;;16.30;45.10;;;;;;6182532;23;45281;-72
2022/12/03 09:04:04;;;;;;;9.00;4.90;;;16.30;45.30;;;;;;6183408;23;45342;-72
2022/12/03 09:06:31;;;;;;;9.20;4.75;;;16.30;45.50;;;;;;6181376;23;45280;-72
2022/12/03 09:08:58;;;;;;;9.18;4.78;;;16.30;45.60;;;;;;6183463;23;45277;-72
2022/12/03 09:11:26;;;;;;;8.18;4.50;;;16.30;45.50;;;;;;6182698;22;46610;-71
2022/12/03 09:13:53;;;;;;;7.88;4.65;;;16.30;45.40;;;;;;6183382;23;45321;-71
2022/12/03 09:16:20;;;;;;;8.43;4.72;;;16.30;45.60;;;;;;6182918;23;45422;-71
2022/12/03 09:18:46;;;;;;;10.80;5.03;;;16.30;45.30;;;;;;6183196;23;45241;-72
2022/12/03 09:21:13;;;;;;;7.85;4.55;;;16.30;45.00;;;;;;6182767;23;47311;-71
2022/12/03 09:23:40;;;;;;;8.00;4.88;;;16.30;44.90;;;;;;6182666;23;45376;-72
2022/12/03 09:26:07;;;;;;;7.47;4.68;;;16.30;44.90;;;;;;6182679;23;45152;-72
2022/12/03 09:28:35;;;;;;;10.05;5.25;;;16.30;44.80;;;;;;6183365;23;45472;-72
2022/12/03 09:31:01;;;;;;;8.63;5.25;;;16.30;44.70;;;;;;6181913;23;46515;-71
2022/12/03 09:33:31;;;;;;;7.97;4.85;;;16.20;44.70;;;;;;6183193;23;45221;-71
2022/12/03 09:35:57;;;;;;;9.15;5.00;;;16.20;44.70;;;;;;6181877;23;45242;-71
2022/12/03 09:38:24;;;;;;;7.28;4.55;;;16.20;44.70;;;;;;6183377;23;45161;-72
2022/12/03 09:40:51;;;;;;;9.38;5.07;;;16.30;44.80;;;;;;6182475;23;46661;-71
2022/12/03 09:43:19;;;;;;;8.07;4.68;;;16.20;44.70;;;;;;6183059;23;45539;-71
2022/12/03 09:45:48;;;;;;;8.27;4.72;;;16.20;44.70;;;;;;6182280;23;45242;-71
2022/12/03 09:48:18;;;;;;;8.23;4.53;;;16.20;44.80;;;;;;6183155;23;45418;-72
2022/12/03 09:50:45;;;;;;;8.07;4.47;;;16.30;45.30;;;;;;6182727;23;46384;-71
2022/12/03 09:53:15;;;;;;;7.53;4.55;;;16.30;49.00;;;;;;6182275;23;45273;-71
2022/12/03 09:55:44;;;;;;;8.27;4.38;;;16.30;48.10;;;;;;6182586;23;45382;-71
2022/12/03 09:58:13;;;;;;;8.43;4.78;;;16.30;47.30;;;;;;6183149;23;45240;-72
2022/12/03 10:00:41;;;;;;;10.25;4.57;;;16.30;46.80;;;;;;6183101;23;45432;-71
2022/12/03 10:03:13;;;;;;;8.15;4.53;;;16.30;46.70;;;;;;6182152;23;45408;-72
2022/12/03 10:05:40;;;;;;;7.30;4.75;;;16.30;46.40;;;;;;6181015;23;45205;-72
2022/12/03 10:08:10;;;;;;;9.55;4.80;;;16.30;46.20;;;;;;6183119;23;45260;-72
2022/12/03 10:10:39;;;;;;;6.78;4.18;;;16.30;45.80;;;;;;6181846;22;45313;-70
2022/12/03 10:13:07;;;;;;;7.85;4.45;;;16.30;45.50;;;;;;6182811;23;45432;-72
2022/12/03 10:15:34;;;;;;;8.88;5.47;;;16.30;45.40;;;;;;6181663;23;45354;-72
2022/12/03 10:18:13;;;;;;;7.80;4.68;;;16.30;45.10;;;;;;6182821;23;45254;-72
2022/12/03 10:20:41;;;;;;;8.05;4.50;;;16.30;45.10;;;;;;6182241;23;47082;-71
2022/12/03 10:23:08;;;;;;;8.82;4.95;;;16.30;45.10;;;;;;6182681;23;45441;-72
2022/12/03 10:25:50;;;;;;;7.78;4.68;;;16.30;45.00;;;;;;6182019;23;45230;-72
2022/12/03 10:28:27;;;;;;;9.80;4.88;;;16.30;44.90;;;;;;6183252;23;45457;-71
2022/12/03 10:30:55;;;;;;;8.20;4.57;;;16.30;45.00;;;;;;6182858;23;45393;-72
2022/12/03 10:33:28;;;;;;;7.65;4.63;;;16.30;44.90;;;;;;6181997;23;45221;-71
2022/12/03 10:35:56;;;;;;;10.32;5.20;;;16.20;44.90;;;;;;6182113;23;45452;-72
2022/12/03 10:38:23;;;;;;;8.15;4.95;;;16.20;44.90;;;;;;6182284;23;45225;-72
2022/12/03 10:40:51;;;;;;;6.68;4.20;;;16.30;45.00;;;;;;6182355;23;46285;-72
2022/12/03 10:43:22;;;;;;;8.65;5.00;;;16.20;44.80;;;;;;6183312;23;45256;-71
2022/12/03 10:45:50;;;;;;;10.27;4.72;;;16.30;44.90;;;;;;6183574;23;45253;-72
2022/12/03 10:48:19;;;;;;;7.18;4.43;;;16.30;45.10;;;;;;6183891;23;45360;-72
2022/12/03 10:50:51;;;;;;;6.32;4.30;;;16.30;45.20;;;;;;6182853;23;46556;-72
2022/12/03 10:53:21;;;;;;;8.25;4.50;;;16.30;45.30;;;;;;6183684;23;45357;-72
2022/12/03 10:55:51;;;;;;;7.50;4.78;;;16.30;45.40;;;;;;6182766;23;45361;-72
2022/12/03 10:58:22;;;;;;;7.57;4.35;;;16.30;45.60;;;;;;6184075;23;45369;-72
2022/12/03 11:00:50;;;;;;;6.97;4.60;;;16.30;45.30;;;;;;6182866;23;45310;-72
2022/12/03 11:03:20;;;;;;;8.75;5.13;;;16.30;44.70;;;;;;6184030;23;45243;-71
2022/12/03 11:05:47;;;;;;;8.45;4.63;;;16.30;44.70;;;;;;6181619;23;45226;-71
2022/12/03 11:08:23;;;;;;;7.35;4.57;;;16.30;45.70;;;;;;6183553;23;45348;-72
2022/12/03 11:11:00;;;;;;;7.15;4.15;;;16.30;44.50;;;;;;6183196;23;47897;-72
2022/12/03 11:13:45;;;;;;;6.78;4.15;;;16.30;44.40;;;;;;6182846;23;45229;-72
2022/12/03 11:16:12;;;;;;;7.63;4.05;;;16.30;44.40;;;;;;6179340;23;45248;-72
2022/12/03 11:18:59;;;;;;;8.88;4.82;;;16.30;44.50;;;;;;6183771;23;45349;-72
2022/12/03 11:21:26;;;;;;;5.95;4.00;;;16.30;44.30;;;;;;6183384;23;47958;-72
2022/12/03 11:24:26;;;;;;;7.70;4.75;;;16.30;44.50;;;;;;6183186;23;45227;-72
2022/12/03 11:27:26;;;;;;;8.35;4.47;;;16.20;44.30;;;;;;6183447;23;45221;-72
2022/12/03 11:30:00;;;;;;;6.72;4.40;;;16.20;44.30;;;;;;6183308;23;45446;-72
2022/12/03 11:33:07;;;;;;;6.97;4.15;;;16.20;44.40;;;;;;6183364;23;46275;-72
2022/12/03 11:36:06;;;;;;;8.07;4.50;;;16.20;44.40;;;;;;6182312;23;45262;-72
2022/12/03 11:38:51;;;;;;;6.45;4.28;;;16.20;44.30;;;;;;6183559;23;45289;-72
2022/12/03 11:41:21;;;;;;;7.13;4.35;;;16.20;45.10;;;;;;6183252;23;45352;-72
2022/12/03 11:44:30;;;;;;;8.57;4.88;;;16.30;48.30;;;;;;6183295;23;45305;-72
2022/12/03 11:47:08;;;;;;;7.68;4.25;;;16.30;47.00;;;;;;6125027;23;45372;-72
2022/12/03 11:49:46;;;;;;;7.82;4.28;;;16.30;46.00;;;;;;6183880;23;45440;-72
2022/12/03 11:52:30;;;;;;;9.32;4.93;;;16.30;45.70;;;;;;6183512;23;45146;-72
2022/12/03 11:55:04;;;;;;;8.45;4.75;;;16.30;44.90;;;;;;6182532;23;46365;-72
2022/12/03 11:57:37;;;;;;;7.40;4.47;;;16.30;44.90;;;;;;6183333;23;45317;-72
2022/12/03 12:00:20;;;;;;;6.75;4.40;;;16.20;44.60;;;;;;6182256;23;45259;-72
2022/12/03 12:02:47;;;;;;;8.40;4.15;;;16.30;44.90;;;;;;6186424;23;45293;-72
2022/12/03 12:05:19;;;;;;;7.68;4.45;;;16.30;45.40;;;;;;6180631;23;47248;-72
2022/12/03 12:07:47;;;;;;;6.63;4.20;;;16.30;45.70;;;;;;6183313;23;45469;-72
2022/12/03 12:10:14;;;;;;;6.43;3.90;;;16.30;45.90;;;;;;6183081;23;45446;-73
2022/12/03 12:12:44;;;;;;;7.13;4.15;;;16.30;46.00;;;;;;6183876;23;45197;-73
2022/12/03 12:15:48;;;;;;;8.00;4.65;;;16.30;45.90;;;;;;6182071;23;47281;-72
2022/12/03 12:18:37;;;;;;;6.65;3.97;;;16.40;46.10;;;;;;6183747;23;45198;-72
2022/12/03 12:21:41;;;;;;;6.97;4.20;;;16.40;46.50;;;;;;6174149;23;45256;-72
2022/12/03 12:24:31;;;;;;;5.80;3.92;;;16.40;46.60;;;;;;6183721;23;45483;-72
2022/12/03 12:26:59;;;;;;;5.90;3.72;;;16.40;46.80;;;;;;6182132;23;47490;-72
2022/12/03 12:29:28;;;;;;;6.53;3.80;;;16.40;47.10;;;;;;6183363;23;45591;-72
2022/12/03 12:31:59;;;;;;;7.50;3.97;;;16.50;47.20;;;;;;6183308;23;45393;-72
2022/12/03 12:34:26;;;;;;;5.22;3.67;;;16.40;47.20;;;;;;6183453;23;45425;-72
2022/12/03 12:36:55;;;;;;;6.22;3.65;;;16.50;47.30;;;;;;6182668;23;46283;-72
2022/12/03 12:39:22;;;;;;;6.03;3.70;;;16.50;47.40;;;;;;6182870;23;45358;-72
2022/12/03 12:41:51;;;;;;;6.78;4.13;;;16.50;47.50;;;;;;6183607;23;45257;-72
2022/12/03 12:44:22;;;;;;;9.40;4.25;;;16.50;47.50;;;;;;6181998;23;45486;-72
2022/12/03 12:46:52;;;;;;;7.05;4.25;;;16.50;47.50;;;;;;6182627;23;45665;-72
2022/12/03 12:49:25;;;;;;;7.28;3.90;;;16.50;47.50;;;;;;6182922;23;45400;-72
2022/12/03 12:51:52;;;;;;;7.03;4.18;;;16.50;47.50;;;;;;6183509;23;45309;-72
2022/12/03 12:54:19;;;;;;;6.65;3.72;;;16.50;47.60;;;;;;6183412;23;45237;-72
2022/12/03 12:56:48;;;;;;;7.10;4.03;;;16.50;47.60;;;;;;6184155;23;45357;-72
2022/12/03 12:59:18;;;;;;;7.13;3.80;;;16.50;48.80;;;;;;6183495;23;45255;-72
2022/12/03 13:01:46;;;;;;;6.13;3.75;;;16.50;47.70;;;;;;6181566;23;45325;-72
2022/12/03 13:04:16;;;;;;;5.50;3.47;;;16.50;47.80;;;;;;6183106;23;45717;-72
2022/12/03 13:06:43;;;;;;;7.40;4.28;;;16.50;47.80;;;;;;6181001;23;45501;-73
2022/12/03 13:09:15;;;;;;;5.60;3.42;;;16.50;47.80;;;;;;6183111;23;45289;-72
2022/12/03 13:11:45;;;;;;;6.15;3.97;;;16.50;47.90;;;;;;6183431;22;45449;-72
2022/12/03 13:14:16;;;;;;;6.95;3.78;;;16.50;47.80;;;;;;6182994;23;45507;-72